sensor_id;sensor_type;location;lat;lon;timestamp;P1;durP1;ratioP1;P2;durP2;ratioP2
23702;SDS011;12030;50.376;8.762;2023-05-28T00:00:26;7.57;;;4.40;;
23702;SDS011;12030;50.376;8.762;2023-05-28T00:02:52;7.30;;;4.50;;
23702;SDS011;12030;50.376;8.762;2023-05-28T00:05:18;9.07;;;4.80;;
23702;SDS011;12030;50.376;8.762;2023-05-28T00:07:44;8.10;;;4.50;;
23702;SDS011;12030;50.376;8.762;2023-05-28T00:10:09;7.27;;;4.47;;
23702;SDS011;12030;50.376;8.762;2023-05-28T00:12:35;7.55;;;4.78;;
23702;SDS011;12030;50.376;8.762;2023-05-28T00:15:01;8.77;;;4.17;;
23702;SDS011;12030;50.376;8.762;2023-05-28T00:17:27;8.00;;;4.70;;
23702;SDS011;12030;50.376;8.762;2023-05-28T00:19:53;6.30;;;4.50;;
23702;SDS011;12030;50.376;8.762;2023-05-28T00:22:19;8.55;;;4.60;;
23702;SDS011;12030;50.376;8.762;2023-05-28T00:24:45;7.68;;;4.53;;
23702;SDS011;12030;50.376;8.762;2023-05-28T00:27:10;6.80;;;4.53;;
23702;SDS011;12030;50.376;8.762;2023-05-28T00:29:36;7.97;;;4.60;;
23702;SDS011;12030;50.376;8.762;2023-05-28T00:32:02;7.30;;;4.32;;
23702;SDS011;12030;50.376;8.762;2023-05-28T00:34:28;8.63;;;4.70;;
23702;SDS011;12030;50.376;8.762;2023-05-28T00:36:54;7.90;;;4.30;;
23702;SDS011;12030;50.376;8.762;2023-05-28T00:39:20;7.17;;;4.90;;
23702;SDS011;12030;50.376;8.762;2023-05-28T00:41:46;8.85;;;4.70;;
23702;SDS011;12030;50.376;8.762;2023-05-28T00:44:12;7.03;;;4.45;;
23702;SDS011;12030;50.376;8.762;2023-05-28T00:46:41;6.83;;;4.30;;
23702;SDS011;12030;50.376;8.762;2023-05-28T00:49:09;7.05;;;4.40;;
23702;SDS011;12030;50.376;8.762;2023-05-28T00:51:35;8.50;;;4.50;;
23702;SDS011;12030;50.376;8.762;2023-05-28T00:54:02;7.43;;;4.65;;
23702;SDS011;12030;50.376;8.762;2023-05-28T00:56:28;9.30;;;4.60;;
23702;SDS011;12030;50.376;8.762;2023-05-28T00:58:54;6.88;;;4.43;;
23702;SDS011;12030;50.376;8.762;2023-05-28T01:01:20;7.95;;;4.38;;
23702;SDS011;12030;50.376;8.762;2023-05-28T01:03:47;8.47;;;5.27;;
23702;SDS011;12030;50.376;8.762;2023-05-28T01:06:13;7.43;;;4.40;;
23702;SDS011;12030;50.376;8.762;2023-05-28T01:08:42;6.90;;;4.47;;
23702;SDS011;12030;50.376;8.762;2023-05-28T01:11:10;8.52;;;5.00;;
23702;SDS011;12030;50.376;8.762;2023-05-28T01:13:37;8.43;;;4.67;;
23702;SDS011;12030;50.376;8.762;2023-05-28T01:16:04;8.70;;;4.32;;
23702;SDS011;12030;50.376;8.762;2023-05-28T01:18:30;8.40;;;4.50;;
23702;SDS011;12030;50.376;8.762;2023-05-28T01:20:57;7.03;;;4.25;;
23702;SDS011;12030;50.376;8.762;2023-05-28T01:23:26;8.32;;;4.70;;
23702;SDS011;12030;50.376;8.762;2023-05-28T01:25:53;8.80;;;4.60;;
23702;SDS011;12030;50.376;8.762;2023-05-28T01:28:24;8.50;;;4.68;;
23702;SDS011;12030;50.376;8.762;2023-05-28T01:30:50;7.80;;;4.50;;
23702;SDS011;12030;50.376;8.762;2023-05-28T01:33:17;8.00;;;4.32;;
23702;SDS011;12030;50.376;8.762;2023-05-28T01:35:44;8.88;;;4.28;;
23702;SDS011;12030;50.376;8.762;2023-05-28T01:38:10;7.18;;;4.57;;
23702;SDS011;12030;50.376;8.762;2023-05-28T01:40:43;7.05;;;4.32;;
23702;SDS011;12030;50.376;8.762;2023-05-28T01:43:09;9.25;;;4.90;;
23702;SDS011;12030;50.376;8.762;2023-05-28T01:45:35;7.28;;;4.47;;
23702;SDS011;12030;50.376;8.762;2023-05-28T01:48:01;7.90;;;4.35;;
23702;SDS011;12030;50.376;8.762;2023-05-28T01:50:27;10.70;;;4.75;;
23702;SDS011;12030;50.376;8.762;2023-05-28T01:52:55;7.97;;;4.43;;
23702;SDS011;12030;50.376;8.762;2023-05-28T01:55:20;8.45;;;4.47;;
23702;SDS011;12030;50.376;8.762;2023-05-28T01:57:49;7.60;;;4.20;;
23702;SDS011;12030;50.376;8.762;2023-05-28T02:00:15;8.27;;;4.45;;
23702;SDS011;12030;50.376;8.762;2023-05-28T02:02:41;7.25;;;4.50;;
23702;SDS011;12030;50.376;8.762;2023-05-28T02:05:08;9.03;;;4.70;;
23702;SDS011;12030;50.376;8.762;2023-05-28T02:07:34;7.35;;;4.15;;
23702;SDS011;12030;50.376;8.762;2023-05-28T02:10:00;8.82;;;4.65;;
23702;SDS011;12030;50.376;8.762;2023-05-28T02:12:26;7.47;;;4.43;;
23702;SDS011;12030;50.376;8.762;2023-05-28T02:14:52;6.33;;;4.50;;
23702;SDS011;12030;50.376;8.762;2023-05-28T02:17:18;7.50;;;4.35;;
23702;SDS011;12030;50.376;8.762;2023-05-28T02:19:44;7.72;;;4.22;;
23702;SDS011;12030;50.376;8.762;2023-05-28T02:22:09;7.23;;;4.43;;
23702;SDS011;12030;50.376;8.762;2023-05-28T02:24:37;7.82;;;4.78;;
23702;SDS011;12030;50.376;8.762;2023-05-28T02:27:03;7.35;;;4.47;;
23702;SDS011;12030;50.376;8.762;2023-05-28T02:29:29;6.45;;;4.53;;
23702;SDS011;12030;50.376;8.762;2023-05-28T02:31:55;5.82;;;3.92;;
23702;SDS011;12030;50.376;8.762;2023-05-28T02:34:21;7.50;;;4.50;;
23702;SDS011;12030;50.376;8.762;2023-05-28T02:36:47;6.97;;;4.45;;
23702;SDS011;12030;50.376;8.762;2023-05-28T02:39:13;7.30;;;4.22;;
23702;SDS011;12030;50.376;8.762;2023-05-28T02:41:39;6.88;;;4.40;;
23702;SDS011;12030;50.376;8.762;2023-05-28T02:44:05;7.88;;;4.85;;
23702;SDS011;12030;50.376;8.762;2023-05-28T02:46:31;8.27;;;4.73;;
23702;SDS011;12030;50.376;8.762;2023-05-28T02:48:57;7.53;;;4.78;;
23702;SDS011;12030;50.376;8.762;2023-05-28T02:51:23;8.35;;;4.68;;
23702;SDS011;12030;50.376;8.762;2023-05-28T02:53:49;9.15;;;4.60;;
23702;SDS011;12030;50.376;8.762;2023-05-28T02:56:15;8.10;;;4.50;;
23702;SDS011;12030;50.376;8.762;2023-05-28T02:58:41;8.73;;;4.80;;
23702;SDS011;12030;50.376;8.762;2023-05-28T03:01:07;5.68;;;3.90;;
23702;SDS011;12030;50.376;8.762;2023-05-28T03:03:33;6.80;;;4.60;;
23702;SDS011;12030;50.376;8.762;2023-05-28T03:05:59;6.28;;;4.50;;
23702;SDS011;12030;50.376;8.762;2023-05-28T03:08:25;9.48;;;5.03;;
23702;SDS011;12030;50.376;8.762;2023-05-28T03:10:51;7.20;;;4.47;;
23702;SDS011;12030;50.376;8.762;2023-05-28T03:13:17;6.80;;;4.15;;
23702;SDS011;12030;50.376;8.762;2023-05-28T03:15:43;7.80;;;4.47;;
23702;SDS011;12030;50.376;8.762;2023-05-28T03:18:09;7.13;;;4.03;;
23702;SDS011;12030;50.376;8.762;2023-05-28T03:20:35;7.10;;;4.20;;
23702;SDS011;12030;50.376;8.762;2023-05-28T03:23:01;9.23;;;4.47;;
23702;SDS011;12030;50.376;8.762;2023-05-28T03:25:27;8.03;;;4.20;;
23702;SDS011;12030;50.376;8.762;2023-05-28T03:27:52;5.87;;;4.10;;
23702;SDS011;12030;50.376;8.762;2023-05-28T03:30:18;7.80;;;4.70;;
23702;SDS011;12030;50.376;8.762;2023-05-28T03:32:46;9.07;;;4.20;;
23702;SDS011;12030;50.376;8.762;2023-05-28T03:35:12;7.70;;;4.22;;
23702;SDS011;12030;50.376;8.762;2023-05-28T03:37:37;7.20;;;4.20;;
23702;SDS011;12030;50.376;8.762;2023-05-28T03:40:04;10.13;;;4.63;;
23702;SDS011;12030;50.376;8.762;2023-05-28T03:42:30;8.18;;;4.32;;
23702;SDS011;12030;50.376;8.762;2023-05-28T03:44:55;8.27;;;4.20;;
23702;SDS011;12030;50.376;8.762;2023-05-28T03:47:21;7.28;;;3.90;;
23702;SDS011;12030;50.376;8.762;2023-05-28T03:49:49;7.80;;;4.17;;
23702;SDS011;12030;50.376;8.762;2023-05-28T03:52:15;6.80;;;4.00;;
23702;SDS011;12030;50.376;8.762;2023-05-28T03:54:40;6.80;;;3.97;;
23702;SDS011;12030;50.376;8.762;2023-05-28T03:57:06;8.67;;;4.10;;
23702;SDS011;12030;50.376;8.762;2023-05-28T03:59:31;10.57;;;4.13;;
23702;SDS011;12030;50.376;8.762;2023-05-28T04:01:57;6.00;;;4.35;;
23702;SDS011;12030;50.376;8.762;2023-05-28T04:04:23;6.77;;;3.83;;
23702;SDS011;12030;50.376;8.762;2023-05-28T04:06:48;6.50;;;4.20;;
23702;SDS011;12030;50.376;8.762;2023-05-28T04:09:14;8.07;;;4.33;;
23702;SDS011;12030;50.376;8.762;2023-05-28T04:11:39;9.52;;;4.40;;
23702;SDS011;12030;50.376;8.762;2023-05-28T04:14:05;7.27;;;3.60;;
23702;SDS011;12030;50.376;8.762;2023-05-28T04:16:31;8.30;;;4.43;;
23702;SDS011;12030;50.376;8.762;2023-05-28T04:18:57;9.00;;;4.07;;
23702;SDS011;12030;50.376;8.762;2023-05-28T04:21:22;7.07;;;4.10;;
23702;SDS011;12030;50.376;8.762;2023-05-28T04:23:48;7.85;;;3.78;;
23702;SDS011;12030;50.376;8.762;2023-05-28T04:26:14;8.20;;;4.22;;
23702;SDS011;12030;50.376;8.762;2023-05-28T04:28:41;6.60;;;4.28;;
23702;SDS011;12030;50.376;8.762;2023-05-28T04:31:07;8.48;;;4.10;;
23702;SDS011;12030;50.376;8.762;2023-05-28T04:33:33;10.73;;;4.82;;
23702;SDS011;12030;50.376;8.762;2023-05-28T04:35:58;8.35;;;4.32;;
23702;SDS011;12030;50.376;8.762;2023-05-28T04:38:26;8.43;;;4.50;;
23702;SDS011;12030;50.376;8.762;2023-05-28T04:40:58;7.78;;;4.53;;
23702;SDS011;12030;50.376;8.762;2023-05-28T04:43:25;7.53;;;4.22;;
23702;SDS011;12030;50.376;8.762;2023-05-28T04:45:51;6.38;;;3.92;;
23702;SDS011;12030;50.376;8.762;2023-05-28T04:48:18;6.82;;;4.30;;
23702;SDS011;12030;50.376;8.762;2023-05-28T04:50:44;7.10;;;4.20;;
23702;SDS011;12030;50.376;8.762;2023-05-28T04:53:10;8.75;;;4.45;;
23702;SDS011;12030;50.376;8.762;2023-05-28T04:55:35;7.80;;;4.20;;
23702;SDS011;12030;50.376;8.762;2023-05-28T04:58:01;9.15;;;4.30;;
23702;SDS011;12030;50.376;8.762;2023-05-28T05:00:26;7.32;;;4.30;;
23702;SDS011;12030;50.376;8.762;2023-05-28T05:02:53;8.00;;;4.18;;
23702;SDS011;12030;50.376;8.762;2023-05-28T05:05:19;6.33;;;4.30;;
23702;SDS011;12030;50.376;8.762;2023-05-28T05:07:45;8.13;;;4.40;;
23702;SDS011;12030;50.376;8.762;2023-05-28T05:10:11;8.65;;;4.35;;
23702;SDS011;12030;50.376;8.762;2023-05-28T05:12:37;9.60;;;4.27;;
23702;SDS011;12030;50.376;8.762;2023-05-28T05:15:03;7.63;;;4.15;;
23702;SDS011;12030;50.376;8.762;2023-05-28T05:17:30;8.32;;;4.63;;
23702;SDS011;12030;50.376;8.762;2023-05-28T05:19:56;6.60;;;4.40;;
23702;SDS011;12030;50.376;8.762;2023-05-28T05:22:22;7.05;;;4.40;;
23702;SDS011;12030;50.376;8.762;2023-05-28T05:24:48;7.53;;;4.20;;
23702;SDS011;12030;50.376;8.762;2023-05-28T05:27:14;7.20;;;4.45;;
23702;SDS011;12030;50.376;8.762;2023-05-28T05:29:40;6.77;;;4.40;;
23702;SDS011;12030;50.376;8.762;2023-05-28T05:32:06;7.80;;;4.68;;
23702;SDS011;12030;50.376;8.762;2023-05-28T05:34:31;7.15;;;4.53;;
23702;SDS011;12030;50.376;8.762;2023-05-28T05:36:57;8.48;;;4.63;;
23702;SDS011;12030;50.376;8.762;2023-05-28T05:39:26;7.25;;;4.32;;
23702;SDS011;12030;50.376;8.762;2023-05-28T05:41:53;7.18;;;4.20;;
23702;SDS011;12030;50.376;8.762;2023-05-28T05:44:19;7.72;;;4.45;;
23702;SDS011;12030;50.376;8.762;2023-05-28T05:46:45;6.80;;;4.23;;
23702;SDS011;12030;50.376;8.762;2023-05-28T05:49:10;6.88;;;4.10;;
23702;SDS011;12030;50.376;8.762;2023-05-28T05:51:36;7.13;;;4.07;;
23702;SDS011;12030;50.376;8.762;2023-05-28T05:54:02;7.27;;;4.13;;
23702;SDS011;12030;50.376;8.762;2023-05-28T05:56:28;7.25;;;4.25;;
23702;SDS011;12030;50.376;8.762;2023-05-28T05:58:53;7.20;;;4.07;;
23702;SDS011;12030;50.376;8.762;2023-05-28T06:01:20;6.35;;;3.72;;
23702;SDS011;12030;50.376;8.762;2023-05-28T06:03:46;6.35;;;4.00;;
23702;SDS011;12030;50.376;8.762;2023-05-28T06:06:11;5.05;;;3.65;;
23702;SDS011;12030;50.376;8.762;2023-05-28T06:08:38;6.43;;;4.00;;
23702;SDS011;12030;50.376;8.762;2023-05-28T06:11:04;7.97;;;4.63;;
23702;SDS011;12030;50.376;8.762;2023-05-28T06:13:29;8.38;;;4.03;;
23702;SDS011;12030;50.376;8.762;2023-05-28T06:15:55;8.40;;;4.20;;
23702;SDS011;12030;50.376;8.762;2023-05-28T06:18:20;7.57;;;3.70;;
23702;SDS011;12030;50.376;8.762;2023-05-28T06:20:46;8.30;;;4.20;;
23702;SDS011;12030;50.376;8.762;2023-05-28T06:23:14;6.57;;;3.60;;
23702;SDS011;12030;50.376;8.762;2023-05-28T06:25:39;7.13;;;3.83;;
23702;SDS011;12030;50.376;8.762;2023-05-28T06:28:05;6.40;;;3.43;;
23702;SDS011;12030;50.376;8.762;2023-05-28T06:30:31;6.07;;;3.63;;
23702;SDS011;12030;50.376;8.762;2023-05-28T06:32:56;6.45;;;3.72;;
23702;SDS011;12030;50.376;8.762;2023-05-28T06:35:22;7.32;;;4.10;;
23702;SDS011;12030;50.376;8.762;2023-05-28T06:37:47;9.82;;;4.00;;
23702;SDS011;12030;50.376;8.762;2023-05-28T06:40:13;7.33;;;4.27;;
23702;SDS011;12030;50.376;8.762;2023-05-28T06:42:38;6.97;;;3.73;;
23702;SDS011;12030;50.376;8.762;2023-05-28T06:45:04;6.27;;;3.80;;
23702;SDS011;12030;50.376;8.762;2023-05-28T06:47:30;8.17;;;3.67;;
23702;SDS011;12030;50.376;8.762;2023-05-28T06:49:56;6.78;;;3.85;;
23702;SDS011;12030;50.376;8.762;2023-05-28T06:52:22;6.80;;;3.50;;
23702;SDS011;12030;50.376;8.762;2023-05-28T06:54:48;7.35;;;3.70;;
23702;SDS011;12030;50.376;8.762;2023-05-28T06:57:14;7.93;;;4.00;;
23702;SDS011;12030;50.376;8.762;2023-05-28T06:59:39;7.77;;;4.03;;
23702;SDS011;12030;50.376;8.762;2023-05-28T07:02:05;7.40;;;3.80;;
23702;SDS011;12030;50.376;8.762;2023-05-28T07:04:30;7.97;;;3.97;;
23702;SDS011;12030;50.376;8.762;2023-05-28T07:06:56;6.20;;;3.83;;
23702;SDS011;12030;50.376;8.762;2023-05-28T07:09:21;6.18;;;3.83;;
23702;SDS011;12030;50.376;8.762;2023-05-28T07:11:47;7.75;;;3.75;;
23702;SDS011;12030;50.376;8.762;2023-05-28T07:14:12;6.53;;;3.88;;
23702;SDS011;12030;50.376;8.762;2023-05-28T07:16:38;7.22;;;3.85;;
23702;SDS011;12030;50.376;8.762;2023-05-28T07:19:04;6.87;;;3.50;;
23702;SDS011;12030;50.376;8.762;2023-05-28T07:21:30;6.43;;;3.45;;
23702;SDS011;12030;50.376;8.762;2023-05-28T07:23:57;5.87;;;3.77;;
23702;SDS011;12030;50.376;8.762;2023-05-28T07:26:22;5.90;;;3.63;;
23702;SDS011;12030;50.376;8.762;2023-05-28T07:28:48;6.55;;;3.53;;
23702;SDS011;12030;50.376;8.762;2023-05-28T07:31:14;6.28;;;3.60;;
23702;SDS011;12030;50.376;8.762;2023-05-28T07:33:39;9.60;;;3.65;;
23702;SDS011;12030;50.376;8.762;2023-05-28T07:36:05;7.43;;;3.73;;
23702;SDS011;12030;50.376;8.762;2023-05-28T07:38:31;7.72;;;3.58;;
23702;SDS011;12030;50.376;8.762;2023-05-28T07:40:56;6.32;;;3.53;;
23702;SDS011;12030;50.376;8.762;2023-05-28T07:43:22;5.78;;;3.53;;
23702;SDS011;12030;50.376;8.762;2023-05-28T07:45:47;5.95;;;3.33;;
23702;SDS011;12030;50.376;8.762;2023-05-28T07:48:13;6.22;;;3.35;;
23702;SDS011;12030;50.376;8.762;2023-05-28T07:50:38;5.32;;;3.58;;
23702;SDS011;12030;50.376;8.762;2023-05-28T07:53:06;5.88;;;3.22;;
23702;SDS011;12030;50.376;8.762;2023-05-28T07:55:31;6.95;;;3.38;;
23702;SDS011;12030;50.376;8.762;2023-05-28T07:57:57;6.90;;;3.38;;
23702;SDS011;12030;50.376;8.762;2023-05-28T08:00:23;5.95;;;2.88;;
23702;SDS011;12030;50.376;8.762;2023-05-28T08:02:52;6.18;;;3.58;;
23702;SDS011;12030;50.376;8.762;2023-05-28T08:05:18;6.97;;;3.30;;
23702;SDS011;12030;50.376;8.762;2023-05-28T08:07:44;6.22;;;3.22;;
23702;SDS011;12030;50.376;8.762;2023-05-28T08:10:10;7.55;;;3.17;;
23702;SDS011;12030;50.376;8.762;2023-05-28T08:12:35;6.93;;;3.58;;
23702;SDS011;12030;50.376;8.762;2023-05-28T08:15:01;6.75;;;3.28;;
23702;SDS011;12030;50.376;8.762;2023-05-28T08:17:29;7.10;;;3.37;;
23702;SDS011;12030;50.376;8.762;2023-05-28T08:19:56;5.85;;;2.95;;
23702;SDS011;12030;50.376;8.762;2023-05-28T08:22:22;6.00;;;3.40;;
23702;SDS011;12030;50.376;8.762;2023-05-28T08:24:48;6.07;;;3.17;;
23702;SDS011;12030;50.376;8.762;2023-05-28T08:27:13;5.83;;;3.20;;
23702;SDS011;12030;50.376;8.762;2023-05-28T08:29:39;7.30;;;3.40;;
23702;SDS011;12030;50.376;8.762;2023-05-28T08:32:05;6.60;;;3.30;;
23702;SDS011;12030;50.376;8.762;2023-05-28T08:34:31;6.50;;;3.20;;
23702;SDS011;12030;50.376;8.762;2023-05-28T08:36:59;7.10;;;3.55;;
23702;SDS011;12030;50.376;8.762;2023-05-28T08:39:24;4.28;;;2.92;;
23702;SDS011;12030;50.376;8.762;2023-05-28T08:41:52;7.05;;;3.20;;
23702;SDS011;12030;50.376;8.762;2023-05-28T08:44:18;4.57;;;3.00;;
23702;SDS011;12030;50.376;8.762;2023-05-28T08:46:44;7.53;;;3.22;;
23702;SDS011;12030;50.376;8.762;2023-05-28T08:49:10;6.73;;;3.33;;
23702;SDS011;12030;50.376;8.762;2023-05-28T08:51:37;10.05;;;3.40;;
23702;SDS011;12030;50.376;8.762;2023-05-28T08:54:04;7.70;;;3.13;;
23702;SDS011;12030;50.376;8.762;2023-05-28T08:56:30;6.67;;;3.40;;
23702;SDS011;12030;50.376;8.762;2023-05-28T08:58:56;6.82;;;3.70;;
23702;SDS011;12030;50.376;8.762;2023-05-28T09:01:23;6.90;;;3.55;;
23702;SDS011;12030;50.376;8.762;2023-05-28T09:03:48;6.95;;;3.20;;
23702;SDS011;12030;50.376;8.762;2023-05-28T09:06:15;6.87;;;3.23;;
23702;SDS011;12030;50.376;8.762;2023-05-28T09:08:43;8.30;;;3.40;;
23702;SDS011;12030;50.376;8.762;2023-05-28T09:11:11;5.90;;;3.40;;
23702;SDS011;12030;50.376;8.762;2023-05-28T09:13:44;6.93;;;3.30;;
23702;SDS011;12030;50.376;8.762;2023-05-28T09:16:11;7.53;;;3.33;;
23702;SDS011;12030;50.376;8.762;2023-05-28T09:18:45;5.80;;;3.28;;
23702;SDS011;12030;50.376;8.762;2023-05-28T09:21:13;6.60;;;3.10;;
23702;SDS011;12030;50.376;8.762;2023-05-28T09:23:39;6.93;;;3.30;;
23702;SDS011;12030;50.376;8.762;2023-05-28T09:26:08;5.78;;;3.50;;
23702;SDS011;12030;50.376;8.762;2023-05-28T09:28:40;5.10;;;3.40;;
23702;SDS011;12030;50.376;8.762;2023-05-28T09:31:07;6.03;;;3.40;;
23702;SDS011;12030;50.376;8.762;2023-05-28T09:33:33;6.97;;;3.37;;
23702;SDS011;12030;50.376;8.762;2023-05-28T09:36:01;5.70;;;3.13;;
23702;SDS011;12030;50.376;8.762;2023-05-28T09:38:37;5.68;;;3.05;;
23702;SDS011;12030;50.376;8.762;2023-05-28T09:41:22;6.57;;;3.25;;
23702;SDS011;12030;50.376;8.762;2023-05-28T09:44:00;6.65;;;3.45;;
23702;SDS011;12030;50.376;8.762;2023-05-28T09:46:30;6.07;;;3.13;;
23702;SDS011;12030;50.376;8.762;2023-05-28T09:48:57;6.43;;;3.20;;
23702;SDS011;12030;50.376;8.762;2023-05-28T09:51:24;7.43;;;3.20;;
23702;SDS011;12030;50.376;8.762;2023-05-28T09:53:53;5.80;;;3.25;;
23702;SDS011;12030;50.376;8.762;2023-05-28T09:56:23;6.73;;;3.33;;
23702;SDS011;12030;50.376;8.762;2023-05-28T09:58:55;8.68;;;3.40;;
23702;SDS011;12030;50.376;8.762;2023-05-28T10:01:22;6.95;;;3.45;;
23702;SDS011;12030;50.376;8.762;2023-05-28T10:03:52;5.43;;;3.28;;
23702;SDS011;12030;50.376;8.762;2023-05-28T10:06:26;6.38;;;3.20;;
23702;SDS011;12030;50.376;8.762;2023-05-28T10:08:53;5.45;;;3.20;;
23702;SDS011;12030;50.376;8.762;2023-05-28T10:11:24;7.63;;;3.55;;
23702;SDS011;12030;50.376;8.762;2023-05-28T10:13:52;6.20;;;3.15;;
23702;SDS011;12030;50.376;8.762;2023-05-28T10:16:19;4.65;;;2.88;;
23702;SDS011;12030;50.376;8.762;2023-05-28T10:18:46;6.27;;;3.23;;
23702;SDS011;12030;50.376;8.762;2023-05-28T10:21:12;5.88;;;3.10;;
23702;SDS011;12030;50.376;8.762;2023-05-28T10:23:39;5.97;;;3.05;;
23702;SDS011;12030;50.376;8.762;2023-05-28T10:26:06;5.45;;;2.92;;
23702;SDS011;12030;50.376;8.762;2023-05-28T10:28:33;7.13;;;3.23;;
23702;SDS011;12030;50.376;8.762;2023-05-28T10:31:00;6.30;;;3.00;;
23702;SDS011;12030;50.376;8.762;2023-05-28T10:33:42;7.35;;;3.08;;
23702;SDS011;12030;50.376;8.762;2023-05-28T10:36:09;5.93;;;3.13;;
23702;SDS011;12030;50.376;8.762;2023-05-28T10:41:33;6.73;;;3.20;;
23702;SDS011;12030;50.376;8.762;2023-05-28T10:44:05;7.23;;;3.00;;
23702;SDS011;12030;50.376;8.762;2023-05-28T10:46:35;6.53;;;3.33;;
23702;SDS011;12030;50.376;8.762;2023-05-28T10:54:22;8.13;;;3.27;;
23702;SDS011;12030;50.376;8.762;2023-05-28T11:02:21;3.45;;;2.70;;
23702;SDS011;12030;50.376;8.762;2023-05-28T11:04:49;7.38;;;3.15;;
23702;SDS011;12030;50.376;8.762;2023-05-28T11:07:16;4.67;;;2.77;;
23702;SDS011;12030;50.376;8.762;2023-05-28T11:09:46;4.47;;;2.90;;
23702;SDS011;12030;50.376;8.762;2023-05-28T11:12:13;4.72;;;2.88;;
23702;SDS011;12030;50.376;8.762;2023-05-28T11:14:39;5.10;;;3.07;;
23702;SDS011;12030;50.376;8.762;2023-05-28T11:17:09;5.83;;;2.70;;
23702;SDS011;12030;50.376;8.762;2023-05-28T11:19:42;5.70;;;3.00;;
23702;SDS011;12030;50.376;8.762;2023-05-28T11:22:09;5.72;;;3.10;;
23702;SDS011;12030;50.376;8.762;2023-05-28T11:27:27;5.10;;;3.30;;
23702;SDS011;12030;50.376;8.762;2023-05-28T11:29:54;6.25;;;3.40;;
23702;SDS011;12030;50.376;8.762;2023-05-28T11:32:21;6.38;;;3.13;;
23702;SDS011;12030;50.376;8.762;2023-05-28T11:34:48;4.78;;;3.10;;
23702;SDS011;12030;50.376;8.762;2023-05-28T11:37:15;5.17;;;3.00;;
23702;SDS011;12030;50.376;8.762;2023-05-28T11:39:50;7.68;;;3.38;;
23702;SDS011;12030;50.376;8.762;2023-05-28T11:42:18;6.22;;;3.05;;
23702;SDS011;12030;50.376;8.762;2023-05-28T11:44:44;5.43;;;3.30;;
23702;SDS011;12030;50.376;8.762;2023-05-28T11:47:14;6.60;;;3.20;;
23702;SDS011;12030;50.376;8.762;2023-05-28T11:49:40;5.40;;;3.15;;
23702;SDS011;12030;50.376;8.762;2023-05-28T11:52:10;5.95;;;3.10;;
23702;SDS011;12030;50.376;8.762;2023-05-28T11:54:36;6.20;;;3.40;;
23702;SDS011;12030;50.376;8.762;2023-05-28T11:57:03;7.22;;;3.33;;
23702;SDS011;12030;50.376;8.762;2023-05-28T11:59:29;6.33;;;3.23;;
23702;SDS011;12030;50.376;8.762;2023-05-28T12:02:07;5.70;;;3.33;;
23702;SDS011;12030;50.376;8.762;2023-05-28T12:04:38;4.27;;;3.23;;
23702;SDS011;12030;50.376;8.762;2023-05-28T12:07:04;4.57;;;3.10;;
23702;SDS011;12030;50.376;8.762;2023-05-28T12:09:30;5.13;;;3.27;;
23702;SDS011;12030;50.376;8.762;2023-05-28T12:12:01;5.97;;;3.10;;
23702;SDS011;12030;50.376;8.762;2023-05-28T12:14:28;5.80;;;3.07;;
23702;SDS011;12030;50.376;8.762;2023-05-28T12:16:55;5.50;;;3.13;;
23702;SDS011;12030;50.376;8.762;2023-05-28T12:19:31;4.95;;;3.33;;
23702;SDS011;12030;50.376;8.762;2023-05-28T12:21:57;5.22;;;3.13;;
23702;SDS011;12030;50.376;8.762;2023-05-28T12:24:23;6.30;;;3.07;;
23702;SDS011;12030;50.376;8.762;2023-05-28T12:26:52;6.05;;;3.97;;
23702;SDS011;12030;50.376;8.762;2023-05-28T12:29:17;7.03;;;4.07;;
23702;SDS011;12030;50.376;8.762;2023-05-28T12:31:43;6.83;;;3.97;;
23702;SDS011;12030;50.376;8.762;2023-05-28T12:34:09;5.07;;;3.33;;
23702;SDS011;12030;50.376;8.762;2023-05-28T12:36:34;5.00;;;3.30;;
23702;SDS011;12030;50.376;8.762;2023-05-28T12:39:01;5.47;;;3.17;;
23702;SDS011;12030;50.376;8.762;2023-05-28T12:41:26;5.50;;;3.17;;
23702;SDS011;12030;50.376;8.762;2023-05-28T12:43:52;6.70;;;3.50;;
23702;SDS011;12030;50.376;8.762;2023-05-28T12:46:18;6.22;;;3.60;;
23702;SDS011;12030;50.376;8.762;2023-05-28T12:48:43;5.38;;;3.13;;
23702;SDS011;12030;50.376;8.762;2023-05-28T12:51:09;5.32;;;2.95;;
23702;SDS011;12030;50.376;8.762;2023-05-28T12:53:35;4.63;;;2.70;;
23702;SDS011;12030;50.376;8.762;2023-05-28T12:56:01;5.93;;;2.77;;
23702;SDS011;12030;50.376;8.762;2023-05-28T12:58:26;5.30;;;3.03;;
23702;SDS011;12030;50.376;8.762;2023-05-28T13:00:52;5.90;;;2.97;;
23702;SDS011;12030;50.376;8.762;2023-05-28T13:03:17;5.18;;;3.00;;
23702;SDS011;12030;50.376;8.762;2023-05-28T13:05:43;5.70;;;3.10;;
23702;SDS011;12030;50.376;8.762;2023-05-28T13:08:11;4.10;;;3.03;;
23702;SDS011;12030;50.376;8.762;2023-05-28T13:10:36;4.03;;;2.70;;
23702;SDS011;12030;50.376;8.762;2023-05-28T13:13:02;5.70;;;3.40;;
23702;SDS011;12030;50.376;8.762;2023-05-28T13:15:27;4.93;;;2.97;;
23702;SDS011;12030;50.376;8.762;2023-05-28T13:17:53;5.03;;;2.87;;
23702;SDS011;12030;50.376;8.762;2023-05-28T13:20:18;4.93;;;2.90;;
23702;SDS011;12030;50.376;8.762;2023-05-28T13:22:44;5.78;;;2.88;;
23702;SDS011;12030;50.376;8.762;2023-05-28T13:25:10;5.80;;;2.90;;
23702;SDS011;12030;50.376;8.762;2023-05-28T13:27:36;5.38;;;3.10;;
23702;SDS011;12030;50.376;8.762;2023-05-28T13:30:01;5.30;;;3.17;;
23702;SDS011;12030;50.376;8.762;2023-05-28T13:32:28;5.33;;;3.80;;
23702;SDS011;12030;50.376;8.762;2023-05-28T13:34:53;5.87;;;4.07;;
23702;SDS011;12030;50.376;8.762;2023-05-28T13:37:19;4.32;;;3.10;;
23702;SDS011;12030;50.376;8.762;2023-05-28T13:39:46;5.85;;;3.33;;
23702;SDS011;12030;50.376;8.762;2023-05-28T13:42:11;4.93;;;3.20;;
23702;SDS011;12030;50.376;8.762;2023-05-28T13:44:39;5.43;;;3.53;;
23702;SDS011;12030;50.376;8.762;2023-05-28T13:47:05;4.90;;;3.28;;
23702;SDS011;12030;50.376;8.762;2023-05-28T13:49:30;6.50;;;3.30;;
23702;SDS011;12030;50.376;8.762;2023-05-28T13:51:56;5.32;;;3.35;;
23702;SDS011;12030;50.376;8.762;2023-05-28T13:54:21;5.03;;;3.45;;
23702;SDS011;12030;50.376;8.762;2023-05-28T13:56:47;5.30;;;3.23;;
23702;SDS011;12030;50.376;8.762;2023-05-28T13:59:12;7.03;;;3.37;;
23702;SDS011;12030;50.376;8.762;2023-05-28T14:01:38;5.60;;;3.50;;
23702;SDS011;12030;50.376;8.762;2023-05-28T14:04:04;6.53;;;3.38;;
23702;SDS011;12030;50.376;8.762;2023-05-28T14:06:29;5.57;;;3.75;;
23702;SDS011;12030;50.376;8.762;2023-05-28T14:08:57;7.03;;;3.60;;
23702;SDS011;12030;50.376;8.762;2023-05-28T14:11:22;6.20;;;3.30;;
23702;SDS011;12030;50.376;8.762;2023-05-28T14:13:49;7.50;;;4.10;;
23702;SDS011;12030;50.376;8.762;2023-05-28T14:16:15;4.03;;;3.27;;
23702;SDS011;12030;50.376;8.762;2023-05-28T14:18:40;4.93;;;3.47;;
23702;SDS011;12030;50.376;8.762;2023-05-28T14:21:06;5.70;;;3.40;;
23702;SDS011;12030;50.376;8.762;2023-05-28T14:23:32;5.15;;;3.22;;
23702;SDS011;12030;50.376;8.762;2023-05-28T14:25:57;4.55;;;3.15;;
23702;SDS011;12030;50.376;8.762;2023-05-28T14:28:23;6.32;;;3.53;;
23702;SDS011;12030;50.376;8.762;2023-05-28T14:30:51;5.32;;;3.55;;
23702;SDS011;12030;50.376;8.762;2023-05-28T14:33:16;4.60;;;3.40;;
23702;SDS011;12030;50.376;8.762;2023-05-28T14:35:42;5.97;;;3.30;;
23702;SDS011;12030;50.376;8.762;2023-05-28T14:38:07;4.50;;;3.17;;
23702;SDS011;12030;50.376;8.762;2023-05-28T14:40:33;5.65;;;3.17;;
23702;SDS011;12030;50.376;8.762;2023-05-28T14:42:59;5.28;;;3.10;;
23702;SDS011;12030;50.376;8.762;2023-05-28T14:45:24;4.93;;;3.10;;
23702;SDS011;12030;50.376;8.762;2023-05-28T14:47:50;5.65;;;3.05;;
23702;SDS011;12030;50.376;8.762;2023-05-28T14:50:16;4.28;;;2.85;;
23702;SDS011;12030;50.376;8.762;2023-05-28T14:52:41;4.97;;;3.45;;
23702;SDS011;12030;50.376;8.762;2023-05-28T14:55:07;5.23;;;3.20;;
23702;SDS011;12030;50.376;8.762;2023-05-28T14:57:33;6.60;;;4.05;;
23702;SDS011;12030;50.376;8.762;2023-05-28T15:00:01;6.00;;;3.00;;